createdAt,value
2022-12-31T00:01:33.041Z,25.40
2022-12-31T00:03:55.814Z,24.47
2022-12-31T00:06:28.671Z,27.98
2022-12-31T00:08:52.104Z,30.05
2022-12-31T00:11:14.586Z,30.00
2022-12-31T00:13:37.437Z,30.30
2022-12-31T00:16:29.214Z,34.55
2022-12-31T00:18:54.559Z,30.98
2022-12-31T00:21:17.585Z,31.60
2022-12-31T00:23:40.063Z,28.65
2022-12-31T00:26:13.814Z,31.73
2022-12-31T00:28:36.589Z,32.58
2022-12-31T00:31:08.884Z,30.98
2022-12-31T00:33:31.273Z,28.75
2022-12-31T00:35:53.664Z,32.63
2022-12-31T00:38:16.050Z,30.60
2022-12-31T00:40:38.431Z,28.30
2022-12-31T00:43:00.813Z,28.77
2022-12-31T00:45:23.233Z,31.20
2022-12-31T00:47:45.583Z,27.70
2022-12-31T00:50:08.595Z,32.90
2022-12-31T00:52:30.994Z,36.85
2022-12-31T00:54:53.331Z,29.07
2022-12-31T00:57:15.737Z,30.05
2022-12-31T00:59:38.074Z,30.43
2022-12-31T01:02:00.574Z,29.25
2022-12-31T01:04:23.056Z,30.10
2022-12-31T01:06:45.546Z,32.33
2022-12-31T01:09:08.089Z,28.20
2022-12-31T01:11:30.684Z,28.40
2022-12-31T01:14:05.315Z,26.95
2022-12-31T01:16:54.226Z,33.78
2022-12-31T01:19:25.055Z,27.98
2022-12-31T01:21:49.377Z,29.52
2022-12-31T01:24:11.960Z,31.30
2022-12-31T01:26:34.416Z,23.75
2022-12-31T01:28:56.828Z,24.92
2022-12-31T01:31:22.714Z,27.45
2022-12-31T01:33:45.678Z,24.48
2022-12-31T01:36:21.852Z,23.05
2022-12-31T01:38:47.847Z,24.02
2022-12-31T01:41:15.305Z,22.90
2022-12-31T01:44:09.334Z,24.42
2022-12-31T01:49:58.339Z,23.45
2022-12-31T01:52:41.918Z,21.08
2022-12-31T01:55:23.156Z,24.73
2022-12-31T01:57:46.958Z,20.08
2022-12-31T02:00:10.092Z,23.88
2022-12-31T02:02:32.646Z,21.77
2022-12-31T02:04:56.304Z,21.50
2022-12-31T02:07:18.672Z,18.42
2022-12-31T02:09:41.318Z,19.77
2022-12-31T02:12:04.140Z,17.20
2022-12-31T02:14:30.238Z,18.08
2022-12-31T02:17:10.539Z,17.25
2022-12-31T02:20:29.021Z,18.63
2022-12-31T02:23:00.373Z,17.67
2022-12-31T02:26:04.934Z,20.73
2022-12-31T02:29:16.115Z,18.58
2022-12-31T02:31:59.011Z,17.40
2022-12-31T02:34:37.535Z,15.07
2022-12-31T02:37:00.985Z,14.32
2022-12-31T02:39:23.330Z,16.20
2022-12-31T02:41:52.665Z,12.87
2022-12-31T02:44:35.572Z,19.05
2022-12-31T02:47:34.951Z,13.47
2022-12-31T02:50:35.059Z,17.83
2022-12-31T02:53:37.076Z,13.90
2022-12-31T02:56:52.537Z,15.02
2022-12-31T02:59:44.764Z,16.50
2022-12-31T03:02:16.692Z,18.63
2022-12-31T03:04:39.309Z,17.65
2022-12-31T03:07:13.905Z,20.35
2022-12-31T03:09:36.582Z,19.40
2022-12-31T03:12:17.558Z,13.55
2022-12-31T03:14:39.951Z,19.42
2022-12-31T03:17:02.314Z,15.77
2022-12-31T03:19:43.457Z,15.77
2022-12-31T03:22:24.529Z,16.90
2022-12-31T03:25:05.505Z,17.92
2022-12-31T03:27:27.847Z,16.80
2022-12-31T03:29:50.199Z,17.87
2022-12-31T03:32:12.546Z,16.90
2022-12-31T03:34:34.884Z,17.50
2022-12-31T03:36:57.258Z,13.80
2022-12-31T03:39:19.617Z,17.43
2022-12-31T03:41:41.938Z,17.13
2022-12-31T03:44:04.384Z,14.73
2022-12-31T03:46:26.710Z,16.57
2022-12-31T03:48:49.077Z,13.05
2022-12-31T03:51:11.447Z,15.60
2022-12-31T03:53:35.734Z,13.03
2022-12-31T03:55:58.133Z,15.60
2022-12-31T03:58:20.868Z,16.07
2022-12-31T04:00:43.241Z,13.77
2022-12-31T04:03:05.687Z,13.83
2022-12-31T04:05:28.109Z,13.43
2022-12-31T04:07:52.190Z,11.00
2022-12-31T04:10:16.305Z,13.73
2022-12-31T04:12:39.058Z,17.02
2022-12-31T04:15:01.426Z,13.75
2022-12-31T04:17:23.916Z,12.23
2022-12-31T04:19:46.288Z,10.57
2022-12-31T04:22:08.639Z,13.70
2022-12-31T04:24:31.229Z,10.33
2022-12-31T04:26:53.591Z,13.88
2022-12-31T04:29:15.949Z,11.87
2022-12-31T04:31:38.363Z,12.27
2022-12-31T04:34:00.737Z,11.40
2022-12-31T04:36:23.131Z,12.77
2022-12-31T04:38:45.469Z,12.87
2022-12-31T04:41:17.043Z,11.70
2022-12-31T04:43:39.384Z,12.43
2022-12-31T04:46:01.788Z,13.17
2022-12-31T04:48:24.186Z,8.98
2022-12-31T04:50:46.970Z,10.70
2022-12-31T04:53:09.343Z,12.48
2022-12-31T04:55:31.686Z,12.67
2022-12-31T04:57:54.045Z,12.90
2022-12-31T05:00:16.618Z,15.73
2022-12-31T05:02:39.264Z,15.73
2022-12-31T05:05:01.761Z,8.48
2022-12-31T05:07:24.185Z,10.40
2022-12-31T05:09:46.607Z,14.07
2022-12-31T05:12:08.974Z,11.02
2022-12-31T05:14:31.350Z,12.80
2022-12-31T05:16:53.849Z,10.43
2022-12-31T05:19:16.284Z,9.73
2022-12-31T05:21:38.674Z,8.80
2022-12-31T05:24:01.033Z,11.37
2022-12-31T05:26:23.391Z,8.03
2022-12-31T05:28:45.772Z,8.83
2022-12-31T05:31:08.255Z,8.33
2022-12-31T05:33:30.643Z,8.18
2022-12-31T05:35:52.972Z,10.03
2022-12-31T05:38:15.304Z,7.20
2022-12-31T05:40:37.656Z,9.07
2022-12-31T05:43:00.004Z,9.05
2022-12-31T05:45:28.395Z,11.20
2022-12-31T05:47:53.002Z,9.02
2022-12-31T05:50:15.802Z,7.67
2022-12-31T05:52:38.871Z,9.63
2022-12-31T05:55:01.277Z,12.57
2022-12-31T05:57:23.614Z,11.63
2022-12-31T05:59:45.959Z,10.05
2022-12-31T06:02:08.339Z,8.73
2022-12-31T06:04:30.673Z,9.23
2022-12-31T06:06:53.087Z,8.15
2022-12-31T06:09:16.887Z,12.57
2022-12-31T06:11:39.261Z,6.95
2022-12-31T06:14:01.673Z,7.70
2022-12-31T06:16:24.344Z,7.23
2022-12-31T06:18:50.901Z,8.38
2022-12-31T06:21:13.243Z,7.00
2022-12-31T06:23:35.598Z,8.03
2022-12-31T06:26:02.131Z,6.87
2022-12-31T06:28:24.531Z,8.52
2022-12-31T06:30:47.375Z,9.17
2022-12-31T06:33:09.777Z,6.90
2022-12-31T06:35:32.200Z,8.03
2022-12-31T06:37:54.582Z,7.60
2022-12-31T06:40:16.977Z,8.93
2022-12-31T06:42:39.364Z,6.20
2022-12-31T06:45:01.827Z,9.17
2022-12-31T06:47:24.706Z,6.78
2022-12-31T06:49:47.107Z,7.32
2022-12-31T06:52:09.447Z,7.83
2022-12-31T06:54:32.042Z,8.30
2022-12-31T06:56:54.833Z,8.43
2022-12-31T06:59:28.859Z,6.82
2022-12-31T07:02:27.436Z,5.57
2022-12-31T07:05:27.186Z,9.88
2022-12-31T07:08:37.554Z,7.82
2022-12-31T07:11:10.033Z,7.00
2022-12-31T07:14:02.657Z,7.45
2022-12-31T07:16:40.220Z,5.93
2022-12-31T07:19:24.396Z,7.15
2022-12-31T07:21:46.826Z,8.95
2022-12-31T07:24:10.534Z,6.95
2022-12-31T07:26:56.169Z,7.88
2022-12-31T07:29:24.602Z,9.15
2022-12-31T07:32:34.638Z,7.05
2022-12-31T07:35:45.571Z,7.60
2022-12-31T07:38:16.674Z,7.63
2022-12-31T07:40:46.335Z,10.23
2022-12-31T07:43:23.080Z,7.93
2022-12-31T07:46:13.941Z,8.52
2022-12-31T07:48:36.639Z,8.20
2022-12-31T07:50:59.390Z,10.75
2022-12-31T07:53:25.590Z,10.73
2022-12-31T07:55:50.379Z,7.40
2022-12-31T07:58:24.243Z,8.13
2022-12-31T08:00:46.676Z,7.18
2022-12-31T08:03:10.248Z,8.13
2022-12-31T08:05:33.360Z,11.32
2022-12-31T08:07:57.816Z,7.28
2022-12-31T08:10:39.338Z,6.63
2022-12-31T08:12:42.238Z,9.50
2022-12-31T08:14:46.976Z,9.30
2022-12-31T08:16:50.611Z,7.47
2022-12-31T08:18:53.462Z,8.45
2022-12-31T08:21:15.034Z,8.10
2022-12-31T08:23:35.421Z,9.18
2022-12-31T08:26:20.850Z,9.05
2022-12-31T08:28:51.196Z,7.78
2022-12-31T08:31:37.666Z,8.18
2022-12-31T08:34:20.825Z,7.35
2022-12-31T08:36:29.446Z,9.43
2022-12-31T08:39:02.243Z,8.32
2022-12-31T08:41:24.322Z,9.77
2022-12-31T08:43:38.372Z,5.95
2022-12-31T08:45:50.087Z,10.60
2022-12-31T08:48:34.372Z,6.88
2022-12-31T08:50:37.885Z,8.05
2022-12-31T08:52:40.855Z,7.38
2022-12-31T08:54:44.195Z,6.22
2022-12-31T08:57:16.140Z,9.07
2022-12-31T08:59:36.854Z,8.27
2022-12-31T09:02:08.808Z,7.03
2022-12-31T09:04:20.044Z,7.07
2022-12-31T09:06:43.922Z,9.20
2022-12-31T09:09:36.406Z,6.30
2022-12-31T09:12:11.953Z,8.18
2022-12-31T09:14:50.138Z,7.05
2022-12-31T09:17:19.873Z,6.57
2022-12-31T09:19:22.321Z,6.40
2022-12-31T09:23:28.023Z,6.57
2022-12-31T09:25:31.559Z,10.18
2022-12-31T09:27:50.189Z,8.40
2022-12-31T09:30:03.728Z,6.97
2022-12-31T09:32:17.774Z,7.55
2022-12-31T09:34:51.119Z,7.05
2022-12-31T09:37:19.546Z,6.80
2022-12-31T09:39:45.555Z,5.40
2022-12-31T09:42:12.013Z,5.70
2022-12-31T09:44:43.443Z,5.88
2022-12-31T09:47:06.663Z,7.10
2022-12-31T09:49:36.821Z,6.75
2022-12-31T09:51:58.448Z,6.60
2022-12-31T09:54:19.407Z,7.00
2022-12-31T09:56:36.580Z,7.65
2022-12-31T09:58:46.035Z,8.10
2022-12-31T10:00:57.957Z,7.43
2022-12-31T10:03:37.817Z,8.23
2022-12-31T10:05:53.312Z,7.78
2022-12-31T10:08:01.084Z,9.68
2022-12-31T10:10:20.738Z,7.57
2022-12-31T10:12:56.874Z,6.57
2022-12-31T10:15:40.079Z,8.85
2022-12-31T10:18:12.855Z,9.25
2022-12-31T10:23:36.941Z,7.00
2022-12-31T10:26:04.953Z,8.15
2022-12-31T10:28:45.840Z,8.23
2022-12-31T10:31:13.118Z,7.68
2022-12-31T10:33:37.013Z,7.18
2022-12-31T10:35:45.991Z,8.38
2022-12-31T10:38:12.219Z,8.27
2022-12-31T10:40:44.119Z,7.32
2022-12-31T10:43:07.822Z,9.55
2022-12-31T10:45:49.820Z,9.70
2022-12-31T10:48:13.098Z,10.60
2022-12-31T10:51:12.342Z,8.27
2022-12-31T10:53:58.322Z,7.07
2022-12-31T10:56:48.631Z,8.82
2022-12-31T10:59:17.614Z,7.22
2022-12-31T11:01:28.790Z,7.82
2022-12-31T11:03:55.941Z,9.70
2022-12-31T11:06:30.894Z,10.80
2022-12-31T11:09:10.631Z,14.32
2022-12-31T11:11:45.756Z,10.60
2022-12-31T11:14:31.626Z,13.02
2022-12-31T11:16:44.414Z,7.03
2022-12-31T11:19:24.570Z,9.23
2022-12-31T11:21:41.404Z,7.28
2022-12-31T11:24:04.207Z,9.18
2022-12-31T11:26:34.125Z,7.65
2022-12-31T11:28:36.958Z,6.72
2022-12-31T11:31:14.245Z,7.47
2022-12-31T11:34:12.700Z,4.97
2022-12-31T11:37:10.835Z,6.75
2022-12-31T11:40:01.256Z,6.05
2022-12-31T11:42:59.083Z,7.35
2022-12-31T11:45:11.369Z,5.88
2022-12-31T11:50:42.741Z,7.35
2022-12-31T11:52:59.965Z,6.60
2022-12-31T11:55:12.744Z,6.05
2022-12-31T11:57:36.784Z,4.60
2022-12-31T11:59:39.046Z,5.20
2022-12-31T12:02:00.923Z,6.88
2022-12-31T12:04:03.212Z,7.30
2022-12-31T12:06:05.969Z,5.93
2022-12-31T12:10:36.476Z,5.32
2022-12-31T12:12:43.409Z,6.50
2022-12-31T12:14:49.164Z,4.38
2022-12-31T12:17:04.276Z,8.30
2022-12-31T12:19:14.672Z,5.10
2022-12-31T12:21:24.068Z,5.80
2022-12-31T12:23:28.127Z,5.53
2022-12-31T12:25:40.350Z,3.90
2022-12-31T12:27:42.824Z,5.07
2022-12-31T12:32:02.416Z,6.40
2022-12-31T12:34:06.792Z,3.67
2022-12-31T12:36:15.457Z,5.45
2022-12-31T12:38:23.286Z,4.57
2022-12-31T12:40:33.407Z,4.90
2022-12-31T12:42:50.580Z,4.63
2022-12-31T12:45:07.385Z,7.20
2022-12-31T12:47:15.567Z,6.45
2022-12-31T12:49:24.658Z,5.18
2022-12-31T12:51:56.544Z,5.97
2022-12-31T12:54:17.251Z,7.15
2022-12-31T12:56:42.476Z,9.20
2022-12-31T12:59:24.951Z,7.70
2022-12-31T13:01:56.144Z,5.88
2022-12-31T13:05:05.071Z,5.60
2022-12-31T13:08:20.335Z,6.18
2022-12-31T13:11:00.427Z,4.22
2022-12-31T13:13:32.233Z,4.25
2022-12-31T13:16:00.633Z,5.82
2022-12-31T13:18:47.595Z,4.30
2022-12-31T13:21:32.946Z,5.20
2022-12-31T13:24:46.344Z,4.80
2022-12-31T13:29:22.626Z,5.97
2022-12-31T13:31:30.926Z,5.60
2022-12-31T13:33:39.346Z,5.57
2022-12-31T13:35:56.845Z,5.00
2022-12-31T13:38:48.875Z,5.75
2022-12-31T13:40:57.567Z,5.38
2022-12-31T13:43:08.640Z,4.28
2022-12-31T13:45:16.811Z,6.50
2022-12-31T13:47:40.927Z,5.65
2022-12-31T13:49:57.715Z,4.40
2022-12-31T13:52:33.660Z,3.63
2022-12-31T13:54:45.776Z,4.55
2022-12-31T13:56:48.431Z,4.13
2022-12-31T13:59:10.399Z,5.90
2022-12-31T14:01:33.841Z,4.90
2022-12-31T14:03:54.618Z,5.93
2022-12-31T14:06:03.555Z,5.10
2022-12-31T14:08:06.585Z,5.95
2022-12-31T14:10:16.153Z,4.28
2022-12-31T14:13:07.635Z,5.68
2022-12-31T14:15:41.735Z,7.38
2022-12-31T14:18:06.932Z,8.30
2022-12-31T14:20:39.734Z,9.02
2022-12-31T14:24:57.505Z,17.95
2022-12-31T14:27:03.726Z,12.73
2022-12-31T14:29:11.153Z,9.07
2022-12-31T14:31:37.973Z,12.27
2022-12-31T14:34:02.419Z,9.40
2022-12-31T14:36:55.444Z,8.27
2022-12-31T14:39:17.223Z,5.65
2022-12-31T14:41:22.519Z,8.05
2022-12-31T14:43:47.909Z,6.63
2022-12-31T14:47:04.917Z,5.65
2022-12-31T14:49:51.988Z,6.43
2022-12-31T14:51:54.668Z,5.25
2022-12-31T14:53:57.768Z,6.80
2022-12-31T14:56:06.290Z,7.95
2022-12-31T14:58:37.051Z,6.65
2022-12-31T15:00:40.118Z,6.60
2022-12-31T15:02:53.115Z,6.72
2022-12-31T15:05:12.039Z,5.47
2022-12-31T15:07:26.634Z,5.88
2022-12-31T15:09:54.465Z,7.22
2022-12-31T15:12:03.640Z,4.07
2022-12-31T15:14:28.218Z,6.05
2022-12-31T15:16:44.425Z,5.93
2022-12-31T15:19:12.265Z,6.10
2022-12-31T15:22:09.483Z,7.80
2022-12-31T15:24:22.855Z,23.27
2022-12-31T15:26:32.557Z,19.67
2022-12-31T15:28:39.781Z,22.02
2022-12-31T15:30:47.388Z,20.00
2022-12-31T15:32:49.792Z,16.52
2022-12-31T15:35:27.041Z,10.10
2022-12-31T15:37:36.918Z,14.73
2022-12-31T15:39:41.755Z,13.85
2022-12-31T15:42:35.496Z,11.25
2022-12-31T15:45:18.925Z,13.93
2022-12-31T15:47:57.942Z,9.50
2022-12-31T15:50:04.856Z,7.95
2022-12-31T15:52:13.613Z,7.47
2022-12-31T15:54:49.753Z,10.77
2022-12-31T15:56:52.539Z,9.52
2022-12-31T15:58:59.365Z,19.52
2022-12-31T16:01:29.105Z,6.75
2022-12-31T16:03:31.620Z,7.88
2022-12-31T16:05:35.317Z,10.57
2022-12-31T16:07:38.610Z,11.68
2022-12-31T16:09:41.578Z,7.15
2022-12-31T16:11:44.662Z,10.20
2022-12-31T16:13:49.940Z,8.63
2022-12-31T16:15:59.173Z,7.10
2022-12-31T16:18:22.383Z,10.27
2022-12-31T16:20:30.235Z,9.75
2022-12-31T16:22:39.929Z,9.93
2022-12-31T16:25:19.590Z,7.93
2022-12-31T16:27:12.577Z,7.13
2022-12-31T16:29:16.667Z,6.82
2022-12-31T16:31:20.123Z,8.18
2022-12-31T16:33:22.446Z,10.73
2022-12-31T16:35:38.000Z,7.90
2022-12-31T16:37:40.731Z,5.50
2022-12-31T16:42:32.769Z,9.07
2022-12-31T16:44:35.361Z,8.63
2022-12-31T16:46:38.040Z,8.27
2022-12-31T16:48:41.427Z,7.43
2022-12-31T16:50:49.897Z,10.48
2022-12-31T16:53:03.088Z,7.95
2022-12-31T16:55:18.438Z,7.85
2022-12-31T16:57:24.487Z,12.70
2022-12-31T16:59:45.714Z,10.75
2022-12-31T17:01:48.007Z,11.70
2022-12-31T17:03:54.117Z,10.73
2022-12-31T17:06:12.739Z,9.18
2022-12-31T17:08:23.919Z,11.85
2022-12-31T17:10:34.242Z,15.23
2022-12-31T17:15:25.416Z,10.65
2022-12-31T17:17:28.301Z,13.10
2022-12-31T17:19:43.303Z,13.30
2022-12-31T17:21:47.351Z,13.07
2022-12-31T17:23:54.758Z,13.18
2022-12-31T17:26:00.710Z,12.18
2022-12-31T17:28:24.209Z,14.50
2022-12-31T17:30:32.840Z,16.90
2022-12-31T17:32:37.913Z,16.52
2022-12-31T17:34:49.502Z,13.70
2022-12-31T17:37:07.914Z,18.42
2022-12-31T17:39:21.141Z,13.35
2022-12-31T17:41:27.149Z,11.80
2022-12-31T17:43:34.867Z,13.93
2022-12-31T17:45:38.123Z,10.73
2022-12-31T17:47:45.167Z,12.90
2022-12-31T17:49:48.136Z,13.23
2022-12-31T17:53:53.282Z,11.90
2022-12-31T17:55:57.064Z,24.58
2022-12-31T17:57:59.866Z,14.10
2022-12-31T18:00:16.939Z,11.95
2022-12-31T18:02:20.173Z,10.32
2022-12-31T18:06:26.766Z,10.37
2022-12-31T18:08:29.464Z,7.82
2022-12-31T18:10:36.548Z,6.20
2022-12-31T18:12:38.886Z,7.40
2022-12-31T18:14:42.067Z,8.45
2022-12-31T18:16:44.541Z,9.65
2022-12-31T18:18:47.462Z,7.93
2022-12-31T18:22:58.211Z,8.50
2022-12-31T18:25:00.931Z,6.53
2022-12-31T18:29:15.657Z,11.50
2022-12-31T18:31:27.280Z,10.90
2022-12-31T18:33:29.518Z,7.32
2022-12-31T18:37:53.770Z,10.35
2022-12-31T18:39:56.902Z,13.45
2022-12-31T18:44:20.496Z,11.07
2022-12-31T18:46:41.140Z,11.98
2022-12-31T18:49:04.248Z,15.98
2022-12-31T18:51:32.005Z,12.35
2022-12-31T18:53:54.831Z,8.90
2022-12-31T18:56:19.529Z,10.30
2022-12-31T18:58:41.988Z,7.85
2022-12-31T19:01:04.662Z,14.70
2022-12-31T19:03:28.375Z,7.45
2022-12-31T19:05:51.420Z,7.57
2022-12-31T19:08:13.861Z,12.32
2022-12-31T19:10:36.252Z,8.80
2022-12-31T19:12:58.668Z,7.87
2022-12-31T19:15:35.761Z,8.43
2022-12-31T19:17:58.169Z,10.65
2022-12-31T19:20:20.606Z,7.07
2022-12-31T19:22:43.060Z,8.38
2022-12-31T19:25:22.318Z,8.77
2022-12-31T19:27:44.801Z,10.23
2022-12-31T19:30:13.848Z,9.13
2022-12-31T19:32:36.210Z,9.63
2022-12-31T19:34:58.626Z,11.40
2022-12-31T19:37:21.000Z,10.13
2022-12-31T19:39:43.380Z,10.93
2022-12-31T19:42:05.747Z,9.27
2022-12-31T19:44:28.108Z,8.57
2022-12-31T19:46:50.531Z,6.80
2022-12-31T19:49:16.080Z,7.73
2022-12-31T19:51:38.564Z,6.60
2022-12-31T19:54:00.988Z,7.07
2022-12-31T19:56:23.411Z,8.93
2022-12-31T19:58:45.845Z,9.67
2022-12-31T20:01:09.449Z,7.75
2022-12-31T20:03:32.943Z,13.90
2022-12-31T20:06:21.737Z,8.10
2022-12-31T20:08:44.160Z,6.53
2022-12-31T20:11:20.230Z,7.37
2022-12-31T20:13:42.817Z,9.30
2022-12-31T20:16:17.589Z,9.90
2022-12-31T20:18:41.057Z,7.05
2022-12-31T20:21:03.448Z,8.73
2022-12-31T20:23:25.828Z,9.80
2022-12-31T20:25:58.209Z,8.20
2022-12-31T20:28:20.610Z,13.32
2022-12-31T20:30:43.145Z,11.00
2022-12-31T20:33:05.581Z,8.68
2022-12-31T20:35:27.950Z,9.17
2022-12-31T20:37:50.306Z,7.70
2022-12-31T20:40:13.021Z,7.88
2022-12-31T20:42:39.923Z,8.80
2022-12-31T20:45:02.287Z,10.27
2022-12-31T20:47:24.723Z,9.53
2022-12-31T20:50:10.383Z,9.87
2022-12-31T20:52:29.417Z,8.55
2022-12-31T20:54:51.783Z,8.70
2022-12-31T20:57:14.173Z,6.93
2022-12-31T20:59:36.577Z,12.07
2022-12-31T21:04:41.907Z,9.00
2022-12-31T21:07:04.475Z,7.00
2022-12-31T21:09:26.875Z,8.13
2022-12-31T21:12:07.642Z,5.90
2022-12-31T21:14:30.013Z,9.52
2022-12-31T21:16:52.495Z,7.60
2022-12-31T21:19:14.908Z,5.28
2022-12-31T21:21:37.546Z,6.70
2022-12-31T21:23:59.999Z,5.10
2022-12-31T21:26:22.334Z,10.18
2022-12-31T21:28:44.782Z,7.90
2022-12-31T21:31:08.001Z,4.50
2022-12-31T21:35:54.030Z,5.97
2022-12-31T21:38:17.162Z,10.32
2022-12-31T21:40:39.499Z,8.10
2022-12-31T21:43:01.950Z,5.22
2022-12-31T21:45:24.467Z,7.30
2022-12-31T21:48:05.643Z,5.50
2022-12-31T21:50:28.036Z,4.80
2022-12-31T21:52:50.434Z,5.10
2022-12-31T21:55:31.769Z,6.87
2022-12-31T22:00:55.019Z,6.75
2022-12-31T22:03:29.800Z,6.72
2022-12-31T22:06:03.162Z,4.70
2022-12-31T22:08:25.788Z,4.53
2022-12-31T22:10:52.467Z,4.30
2022-12-31T22:13:15.492Z,7.45
2022-12-31T22:15:37.949Z,4.28
2022-12-31T22:18:00.399Z,5.82
2022-12-31T22:20:28.566Z,5.07
2022-12-31T22:22:51.206Z,4.03
2022-12-31T22:25:13.628Z,4.40
2022-12-31T22:27:36.069Z,6.70
2022-12-31T22:29:58.430Z,4.95
2022-12-31T22:32:20.803Z,5.73
2022-12-31T22:34:43.162Z,4.77
2022-12-31T22:37:27.493Z,6.50
2022-12-31T22:39:47.969Z,5.35
2022-12-31T22:42:10.336Z,4.60
2022-12-31T22:44:32.760Z,9.50
2022-12-31T22:46:56.326Z,4.25
2022-12-31T22:49:20.186Z,6.80
2022-12-31T22:51:55.188Z,7.57
2022-12-31T22:54:19.831Z,6.30
2022-12-31T22:56:42.423Z,5.93
2022-12-31T22:59:04.859Z,5.65
2022-12-31T23:01:27.268Z,8.57
2022-12-31T23:03:51.964Z,18.30
2022-12-31T23:06:14.659Z,23.60
2022-12-31T23:08:37.049Z,37.15
2022-12-31T23:10:59.814Z,31.07
2022-12-31T23:13:45.895Z,25.05
2022-12-31T23:16:30.910Z,21.67
2022-12-31T23:19:11.921Z,23.58
2022-12-31T23:21:52.906Z,19.13
2022-12-31T23:24:21.416Z,19.98
2022-12-31T23:26:46.940Z,23.75
2022-12-31T23:29:09.280Z,25.77
2022-12-31T23:31:31.746Z,27.63
2022-12-31T23:33:57.289Z,19.92
2022-12-31T23:36:19.627Z,16.92
2022-12-31T23:38:42.043Z,16.37
2022-12-31T23:41:15.212Z,21.43
2022-12-31T23:43:37.568Z,24.23
2022-12-31T23:45:59.913Z,25.98
2022-12-31T23:48:22.319Z,20.23
2022-12-31T23:50:50.841Z,14.73
2022-12-31T23:53:15.262Z,10.73
2022-12-31T23:55:37.617Z,10.67
2022-12-31T23:57:59.949Z,14.40
